createdAt,value
2022-09-12T08:03:33.337Z,1.48
2022-09-12T08:06:05.788Z,1.10
2022-09-12T08:11:01.925Z,1.23
2022-09-12T08:13:30.224Z,0.88
2022-09-12T08:16:00.156Z,0.90
2022-09-12T08:18:29.132Z,1.10
2022-09-12T08:21:00.969Z,1.25
2022-09-12T08:23:29.229Z,1.08
2022-09-12T08:26:05.777Z,0.75
2022-09-12T08:28:35.969Z,0.75
2022-09-12T08:31:13.190Z,0.70
2022-09-12T08:33:41.890Z,0.98
2022-09-12T08:36:15.313Z,0.82
2022-09-12T08:38:45.327Z,1.17
2022-09-12T08:41:30.779Z,0.88
2022-09-12T08:44:04.278Z,1.30
2022-09-12T08:46:41.930Z,0.90
2022-09-12T08:49:13.763Z,1.02
2022-09-12T08:51:42.664Z,0.85
2022-09-12T08:54:21.530Z,1.70
2022-09-12T08:56:50.574Z,1.08
2022-09-12T08:59:18.027Z,1.00
2022-09-12T09:01:46.329Z,1.05
2022-09-12T09:04:34.679Z,0.73
2022-09-12T09:07:29.552Z,0.82
2022-09-12T09:10:28.772Z,1.05
2022-09-12T09:13:12.233Z,1.08
2022-09-12T09:15:49.763Z,1.42
2022-09-12T09:18:30.742Z,1.23
2022-09-12T09:21:06.684Z,1.20
2022-09-12T09:23:42.287Z,0.90
2022-09-12T09:26:15.236Z,1.20
2022-09-12T09:29:13.788Z,1.17
2022-09-12T09:31:43.168Z,1.20
2022-09-12T09:34:20.113Z,0.80
2022-09-12T09:36:52.942Z,1.20
2022-09-12T09:39:31.678Z,1.35
2022-09-12T09:42:34.138Z,1.20
2022-09-12T09:45:04.698Z,1.20
2022-09-12T09:47:32.210Z,1.30
2022-09-12T09:50:00.709Z,0.90
2022-09-12T09:52:31.281Z,1.00
2022-09-12T09:55:01.314Z,1.02
2022-09-12T09:57:34.837Z,1.10
2022-09-12T10:00:22.043Z,0.70
2022-09-12T10:03:15.191Z,0.70
2022-09-12T10:05:59.205Z,0.63
2022-09-12T10:08:36.900Z,0.90
2022-09-12T10:11:17.296Z,0.70
2022-09-12T10:13:51.908Z,0.77
2022-09-12T10:16:19.807Z,0.60
2022-09-12T10:18:47.247Z,2.10
2022-09-12T10:21:23.905Z,3.55
2022-09-12T10:24:19.811Z,4.13
2022-09-12T10:26:57.096Z,3.47
2022-09-12T10:29:32.488Z,3.38
2022-09-12T10:32:04.941Z,2.50
2022-09-12T10:34:43.132Z,3.22
2022-09-12T10:37:20.939Z,0.60
2022-09-12T10:39:54.979Z,0.47
2022-09-12T10:42:46.453Z,0.60
2022-09-12T10:45:37.458Z,0.50
2022-09-12T10:48:32.135Z,0.50
2022-09-12T10:51:00.639Z,0.50
2022-09-12T10:53:34.123Z,0.47
2022-09-12T10:56:17.461Z,0.57
2022-09-12T10:59:22.341Z,0.65
2022-09-12T11:02:01.660Z,0.70
2022-09-12T11:04:48.025Z,0.70
2022-09-12T11:07:24.819Z,0.68
2022-09-12T11:09:58.281Z,0.40
2022-09-12T11:12:37.444Z,0.47
2022-09-12T11:15:55.758Z,0.40
2022-09-12T11:18:43.806Z,0.73
2022-09-12T11:21:40.468Z,0.90
2022-09-12T11:25:00.024Z,0.73
2022-09-12T11:27:55.286Z,0.70
2022-09-12T11:30:23.000Z,1.00
2022-09-12T11:33:33.099Z,0.75
2022-09-12T11:36:05.646Z,1.20
2022-09-12T11:38:39.476Z,0.88
2022-09-12T11:41:44.729Z,1.17
2022-09-12T11:44:30.088Z,1.17
2022-09-12T11:46:58.604Z,1.42
2022-09-12T11:49:39.543Z,1.52
2022-09-12T11:52:07.411Z,0.52
2022-09-12T11:54:53.375Z,0.50
2022-09-12T11:57:26.688Z,0.40
2022-09-12T12:00:09.434Z,0.30
2022-09-12T12:02:51.802Z,0.63
2022-09-12T12:05:31.099Z,1.48
2022-09-12T12:08:06.244Z,1.20
2022-09-12T12:10:59.869Z,1.00
2022-09-12T12:13:50.038Z,0.93
2022-09-12T12:16:31.718Z,1.13
2022-09-12T12:19:01.946Z,1.23
2022-09-12T12:21:32.244Z,1.13
2022-09-12T12:24:08.884Z,1.60
2022-09-12T12:26:55.420Z,1.00
2022-09-12T12:29:22.747Z,1.40
2022-09-12T12:32:05.552Z,1.15
2022-09-12T12:34:35.852Z,1.02
2022-09-12T12:37:21.474Z,1.35
2022-09-12T12:40:01.491Z,1.30
2022-09-12T12:42:35.158Z,1.48
2022-09-12T12:45:20.810Z,1.67
2022-09-12T12:47:54.964Z,1.42
2022-09-12T12:50:28.556Z,1.58
2022-09-12T12:53:20.446Z,1.50
2022-09-12T12:55:52.553Z,1.20
2022-09-12T12:58:35.307Z,1.05
2022-09-12T13:01:14.450Z,1.27
2022-09-12T13:03:46.093Z,1.02
2022-09-12T13:06:32.034Z,1.23
2022-09-12T13:09:08.155Z,0.95
2022-09-12T13:11:41.545Z,0.70
2022-09-12T13:14:47.170Z,1.00
2022-09-12T13:17:31.556Z,0.82
2022-09-12T13:20:27.113Z,0.90
2022-09-12T13:22:55.080Z,0.57
2022-09-12T13:25:28.481Z,0.85
2022-09-12T13:28:02.049Z,0.68
2022-09-12T13:30:33.081Z,0.60
2022-09-12T13:33:10.462Z,0.60
2022-09-12T13:36:19.453Z,0.73
2022-09-12T13:38:58.328Z,0.47
2022-09-12T13:41:25.664Z,0.40
2022-09-12T13:43:53.202Z,0.43
2022-09-12T13:46:30.644Z,0.75
2022-09-12T13:49:01.458Z,0.57
2022-09-12T13:51:32.925Z,0.57
2022-09-12T13:54:04.584Z,0.30
2022-09-12T13:56:31.956Z,0.43
2022-09-12T13:59:02.358Z,0.47
2022-09-12T14:02:02.454Z,0.68
2022-09-12T14:05:08.857Z,0.50
2022-09-12T14:07:52.209Z,0.40
2022-09-12T14:10:32.109Z,0.47
2022-09-12T14:13:02.247Z,0.70
2022-09-12T14:15:32.251Z,0.50
2022-09-12T14:18:02.031Z,0.30
2022-09-12T14:20:35.373Z,0.40
2022-09-12T14:23:18.569Z,0.50
2022-09-12T14:25:48.720Z,0.22
2022-09-12T14:28:23.661Z,0.40
2022-09-12T14:31:06.948Z,0.20
2022-09-12T14:33:57.830Z,0.10
2022-09-12T14:36:34.710Z,0.30
2022-09-12T14:39:05.106Z,0.30
2022-09-12T14:41:36.567Z,0.40
2022-09-12T14:44:08.798Z,0.30
2022-09-12T14:46:39.297Z,0.20
2022-09-12T14:49:23.722Z,0.35
2022-09-12T14:52:03.290Z,0.52
2022-09-12T14:54:31.431Z,0.20
2022-09-12T14:57:01.485Z,0.28
2022-09-12T14:59:35.014Z,0.60
2022-09-12T15:02:16.023Z,0.30
2022-09-12T15:05:09.407Z,0.30
2022-09-12T15:07:39.485Z,0.70
2022-09-12T15:10:31.441Z,0.20
2022-09-12T15:13:12.376Z,0.40
2022-09-12T15:15:41.673Z,0.20
2022-09-12T15:18:09.159Z,0.20
2022-09-12T15:20:39.291Z,0.30
2022-09-12T15:23:38.398Z,0.10
2022-09-12T15:26:06.959Z,0.20
2022-09-12T15:28:35.477Z,0.30
2022-09-12T15:31:11.502Z,0.20
2022-09-12T15:33:40.461Z,0.17
2022-09-12T15:36:16.920Z,0.20
2022-09-12T15:38:45.624Z,0.20
2022-09-12T15:41:20.583Z,0.50
2022-09-12T15:43:49.838Z,0.25
2022-09-12T15:46:18.884Z,0.20
2022-09-12T15:48:46.660Z,0.20
2022-09-12T15:51:16.252Z,0.22
2022-09-12T15:53:44.022Z,0.28
2022-09-12T15:56:12.104Z,0.80
2022-09-12T15:58:57.290Z,0.30
2022-09-12T16:01:26.591Z,0.50
2022-09-12T16:03:54.545Z,0.20
2022-09-12T16:06:22.789Z,0.22
2022-09-12T16:08:50.259Z,0.50
2022-09-12T16:11:24.744Z,0.20
2022-09-12T16:13:57.053Z,0.20
2022-09-12T16:16:24.478Z,0.10
2022-09-12T16:18:51.785Z,0.20
2022-09-12T16:21:19.508Z,0.20
2022-09-12T16:23:48.132Z,0.13
2022-09-12T16:26:16.320Z,0.20
2022-09-12T16:28:43.884Z,0.13
2022-09-12T16:31:13.737Z,0.20
2022-09-12T16:33:41.541Z,0.10
2022-09-12T16:36:11.938Z,0.20
2022-09-12T16:38:44.108Z,0.15
2022-09-12T16:41:12.838Z,0.20
2022-09-12T16:43:40.813Z,0.20
2022-09-12T16:46:17.491Z,0.20
2022-09-12T16:48:52.039Z,0.30
2022-09-12T16:51:23.008Z,0.40
2022-09-12T16:53:51.234Z,0.20
2022-09-12T16:56:19.002Z,0.40
2022-09-12T16:58:46.903Z,0.20
2022-09-12T17:01:17.899Z,0.20
2022-09-12T17:03:45.970Z,0.60
2022-09-12T17:06:18.695Z,0.30
2022-09-12T17:08:54.266Z,0.20
2022-09-12T17:11:24.407Z,0.20
2022-09-12T17:14:09.725Z,0.20
2022-09-12T17:16:39.988Z,0.40
2022-09-12T17:19:09.558Z,0.25
2022-09-12T17:21:37.135Z,1.10
2022-09-12T17:24:04.771Z,0.20
2022-09-12T17:26:33.961Z,0.30
2022-09-12T17:29:01.806Z,0.40
2022-09-12T17:31:29.454Z,0.30
2022-09-12T17:33:58.834Z,0.30
2022-09-12T17:36:27.562Z,0.20
2022-09-12T17:38:56.353Z,0.30
2022-09-12T17:41:26.323Z,0.40
2022-09-12T17:43:57.067Z,0.20
2022-09-12T17:46:27.611Z,0.32
2022-09-12T17:48:57.304Z,0.30
2022-09-12T17:51:26.722Z,0.30
2022-09-12T17:54:07.113Z,0.20
2022-09-12T17:56:35.878Z,0.30
2022-09-12T17:59:04.794Z,0.20
2022-09-12T18:01:50.966Z,0.30
2022-09-12T18:04:21.436Z,0.30
2022-09-12T18:06:50.495Z,0.47
2022-09-12T18:09:21.398Z,0.50
2022-09-12T18:11:50.891Z,0.55
2022-09-12T18:14:20.122Z,0.50
2022-09-12T18:16:48.767Z,0.70
2022-09-12T18:19:17.534Z,0.50
2022-09-12T18:21:45.337Z,0.60
2022-09-12T18:24:13.787Z,0.60
2022-09-12T18:26:44.405Z,0.50
2022-09-12T18:29:13.323Z,0.40
2022-09-12T18:31:41.168Z,0.50
2022-09-12T18:34:14.734Z,0.45
2022-09-12T18:36:44.730Z,0.30
2022-09-12T18:39:13.690Z,0.40
2022-09-12T18:41:41.860Z,0.40
2022-09-12T18:49:59.562Z,0.63
2022-09-12T18:52:34.899Z,0.50
